Pagrindinis puslapis
METAR-TAF:

METAR-TAF

Oro uostai :

Gwalior, Indija

platuma: 26-17-36N, ilguma: 78-13-40E, Aukštis: 188 m

METAR: trūkstamas

Laikas: 17:03 (11:33 UTC)

Prognozė

Ataskaita buvo paskelbta 2 valandos ir 3 minutes, ne 09:30 UTC
Prognozė galioja nuo 19 metu 12 UTC su 20 metu 00 UTC
Vėjas 5 kt iš Vakarų/Šiaurės Vakarų
Matomumas: 6000 m
Išsisklaidę debesys ne aukštis 25000 ft
Tapsmas
nuo 19 metu 15 UTC su 19 metu 17 UTC
Vėjas 2 kt nuo kintamojo kryptimis
Matomumas: 5000 m
migla
Tapsmas
nuo 19 metu 23 UTC su 20 metu 00 UTC
Matomumas: 4000 m
rūkana

TAF: VIGR 190930Z 1912/2000 30005KT 6000 SCT250 BECMG 1915/1917 VRB02KT 5000 HZ BECMG 1923/2000 4000 BR

Orai ataskaitas ir orų prognozės (METAR, TAF).

turimą stotys yra geltonos ir raudonos taškus žemėlapyje.

Perkelti pele per norėdami pamatyti stoties vardą.

Tada spustelėkite, norėdami matyti oro stebėjimo ir prognozės.

Norėdami pakeisti žemėlapį: spustelėkite ant žalios mygtukų su juodo kryžiaus žemyn,; žalią mygtuką su brūkšneliu, jei norite nutolinti; arba žalių rodyklių gretimoms žemėlapius.


METAR-TAF: